Time;durP1;ratioP1;P1;durP2;ratioP2;P2;SDS_P1;SDS_P2;PMS_P1;PMS_P2;Temp;Humidity;BMP_temperature;BMP_pressure;BME280_temperature;BME280_humidity;BME280_pressure;Samples;Min_cycle;Max_cycle;Signal;HPM_P1;HPM_P2
2021/07/14 00:00:16;;;;;;;1999.90;999.90;;;;;;;21.55;71.81;95509.00;5085835;28;20271;-66
2021/07/14 00:02:44;;;;;;;1999.90;999.90;;;;;;;21.58;71.72;95513.56;5085789;28;20617;-67
2021/07/14 00:05:14;;;;;;;1999.90;999.90;;;;;;;21.46;72.07;95519.88;5085370;28;20695;-67
2021/07/14 00:07:41;;;;;;;1999.90;999.90;;;;;;;21.44;72.33;95518.69;5085349;28;20249;-67
2021/07/14 00:10:12;;;;;;;1999.90;999.90;;;;;;;21.45;72.50;95526.28;5085118;28;20203;-66
2021/07/14 00:12:47;;;;;;;1999.90;999.90;;;;;;;21.32;72.75;95532.19;5085826;28;20188;-67
2021/07/14 00:23:32;;;;;;;1999.90;999.90;;;;;;;21.26;73.24;95523.81;5105141;28;20317;-67
2021/07/14 00:26:00;;;;;;;1999.90;999.90;;;;;;;21.20;73.85;95524.47;5095670;28;20180;-67
2021/07/14 00:28:28;;;;;;;1999.90;999.90;;;;;;;21.13;74.02;95525.13;5091609;28;20231;-67
2021/07/14 00:31:00;;;;;;;1999.90;999.90;;;;;;;21.13;74.31;95522.47;5091698;28;20204;-67
2021/07/14 00:33:27;;;;;;;1999.90;999.90;;;;;;;21.08;73.83;95522.03;5073631;28;20302;-66
2021/07/14 00:35:54;;;;;;;1999.90;999.90;;;;;;;21.03;74.41;95520.47;5071490;28;20280;-66
2021/07/14 00:38:22;;;;;;;1999.90;999.90;;;;;;;21.03;74.47;95523.09;5071327;28;20704;-67
2021/07/14 00:40:50;;;;;;;1999.90;999.90;;;;;;;20.98;74.84;95533.97;5071386;28;20668;-66
2021/07/14 00:43:17;;;;;;;1999.90;999.90;;;;;;;20.83;75.09;95535.69;5071211;28;20211;-67
2021/07/14 00:45:44;;;;;;;1999.90;999.90;;;;;;;20.77;75.31;95525.81;5071111;28;20684;-67
2021/07/14 00:48:14;;;;;;;1999.90;999.90;;;;;;;20.67;75.79;95539.63;5071004;28;20200;-67
2021/07/14 00:50:41;;;;;;;1999.90;999.90;;;;;;;20.70;75.89;95538.91;5071313;28;20200;-67
2021/07/14 00:53:09;;;;;;;1999.90;999.90;;;;;;;20.62;76.30;95535.41;5071313;28;20196;-67
2021/07/14 00:55:36;;;;;;;1999.90;999.90;;;;;;;20.80;74.25;95530.34;5088053;28;20207;-66
2021/07/14 00:58:05;;;;;;;1999.90;999.90;;;;;;;20.91;72.64;95537.31;5091077;28;20200;-66
2021/07/14 01:00:32;;;;;;;1999.90;999.90;;;;;;;21.10;72.54;95536.41;5091043;28;20200;-67
2021/07/14 01:03:00;;;;;;;1999.90;999.90;;;;;;;20.87;73.87;95533.09;5091016;28;20196;-67
2021/07/14 01:05:35;;;;;;;1999.90;999.90;;;;;;;20.77;74.80;95539.00;5090897;28;20223;-67
2021/07/14 01:08:09;;;;;;;1999.90;999.90;;;;;;;20.59;75.74;95538.75;5091075;28;20191;-71
2021/07/14 01:10:43;;;;;;;1999.90;999.90;;;;;;;20.43;76.53;95533.59;5091000;28;20275;-68
2021/07/14 01:13:16;;;;;;;1999.90;999.90;;;;;;;20.45;76.65;95539.31;5090902;28;20184;-68
2021/07/14 01:15:50;;;;;;;1999.90;999.90;;;;;;;20.28;77.76;95539.00;5090671;28;20195;-68
2021/07/14 01:18:23;;;;;;;1999.90;999.90;;;;;;;20.36;78.07;95548.59;5090812;28;20196;-68
2021/07/14 01:20:58;;;;;;;1999.90;999.90;;;;;;;20.36;77.97;95538.78;5090974;28;20206;-70
2021/07/14 01:23:35;;;;;;;1999.90;999.90;;;;;;;20.49;77.54;95537.47;5090440;28;20270;-70
2021/07/14 01:26:17;;;;;;;1999.90;999.90;;;;;;;20.34;78.10;95538.38;5087389;28;20187;-68
2021/07/14 01:28:49;;;;;;;1999.90;999.90;;;;;;;20.16;79.38;95540.72;5090634;28;20188;-67
2021/07/14 01:31:20;;;;;;;1999.90;999.90;;;;;;;20.20;78.78;95538.13;5090736;28;20184;-70
2021/07/14 01:33:52;;;;;;;1999.90;999.90;;;;;;;20.23;77.97;95540.06;5090527;28;20617;-67
2021/07/14 01:36:21;;;;;;;1999.90;999.90;;;;;;;20.22;79.01;95549.09;5089968;28;20184;-66
2021/07/14 01:38:49;;;;;;;1999.90;999.90;;;;;;;19.98;79.75;95552.06;5090250;28;20199;-66
2021/07/14 01:41:20;;;;;;;1999.90;999.90;;;;;;;19.76;81.59;95546.47;5090300;28;20195;-68
2021/07/14 01:43:53;;;;;;;1999.90;999.90;;;;;;;19.75;82.24;95547.56;5090186;28;20192;-65
2021/07/14 01:46:22;;;;;;;1999.90;999.90;;;;;;;19.74;82.49;95542.63;5090486;28;20188;-71
2021/07/14 01:48:51;;;;;;;1999.90;999.90;;;;;;;19.62;82.91;95546.22;5090445;28;20204;-74
2021/07/14 01:51:20;;;;;;;1999.90;999.90;;;;;;;19.54;83.60;95552.44;5090209;28;20238;-74
2021/07/14 01:53:48;;;;;;;1999.90;999.90;;;;;;;19.31;84.47;95547.09;5089998;28;20203;-76
2021/07/14 01:56:16;;;;;;;1999.90;999.90;;;;;;;19.29;84.01;95544.03;5090159;28;20195;-71
2021/07/14 01:58:45;;;;;;;1999.90;999.90;;;;;;;19.26;84.07;95541.34;5090409;28;20652;-72
2021/07/14 02:01:18;;;;;;;1999.90;999.90;;;;;;;19.25;83.84;95537.94;5090075;28;20200;-74
2021/07/14 02:04:29;;;;;;;1999.90;999.90;;;;;;;19.19;84.52;95541.19;5090011;28;20199;-74
2021/07/14 02:06:45;;;;;;;1999.90;999.90;;;;;;;19.09;85.33;95552.28;5089813;28;20200;-74
2021/07/14 02:09:13;;;;;;;1999.90;999.90;;;;;;;19.07;85.62;95552.63;5089767;28;20199;-72
2021/07/14 02:11:42;;;;;;;1999.90;999.90;;;;;;;19.06;85.62;95561.66;5089763;28;20733;-72
2021/07/14 02:14:12;;;;;;;1999.90;999.90;;;;;;;19.05;86.09;95554.06;5089937;28;20188;-71
2021/07/14 02:16:44;;;;;;;1999.90;999.90;;;;;;;19.07;85.97;95557.91;5075782;28;20192;-71
2021/07/14 02:19:14;;;;;;;1999.90;999.90;;;;;;;19.14;86.02;95559.91;5069046;28;20271;-71
2021/07/14 02:21:41;;;;;;;1999.90;999.90;;;;;;;19.18;85.85;95555.47;5069254;28;20185;-71
2021/07/14 02:24:11;;;;;;;1999.90;999.90;;;;;;;19.12;85.94;95560.28;5068575;28;20240;-69
2021/07/14 02:26:40;;;;;;;1999.90;999.90;;;;;;;19.02;86.24;95560.03;5069698;28;20283;-69
2021/07/14 02:29:08;;;;;;;1999.90;999.90;;;;;;;18.97;87.01;95562.94;5068881;28;20322;-70
2021/07/14 02:31:36;;;;;;;1999.90;999.90;;;;;;;19.01;87.09;95566.41;5069097;28;20298;-69
2021/07/14 02:34:08;;;;;;;1999.90;999.90;;;;;;;18.98;87.21;95578.38;5070436;28;20204;-70
2021/07/14 02:36:36;;;;;;;1999.90;999.90;;;;;;;19.02;87.21;95576.63;5089221;28;20744;-71
2021/07/14 02:39:07;;;;;;;1999.90;999.90;;;;;;;18.96;86.72;95582.50;5089757;28;20204;-79
2021/07/14 02:41:39;;;;;;;1999.90;999.90;;;;;;;18.89;87.28;95588.34;5089247;28;20191;-77
2021/07/14 02:44:10;;;;;;;1999.90;999.90;;;;;;;18.90;87.25;95584.63;5071425;28;21130;-70
2021/07/14 02:46:42;;;;;;;1999.90;999.90;;;;;;;18.90;86.88;95589.88;5068913;28;20215;-67
2021/07/14 02:49:14;;;;;;;1999.90;999.90;;;;;;;18.82;87.26;95586.34;5068600;28;20605;-71
2021/07/14 02:51:45;;;;;;;1999.90;999.90;;;;;;;18.82;87.45;95586.34;5068869;28;20188;-71
2021/07/14 02:54:22;;;;;;;1999.90;999.90;;;;;;;18.84;87.20;95591.25;5068753;28;20191;-70
2021/07/14 02:56:51;;;;;;;1999.90;999.90;;;;;;;18.83;87.28;95587.09;5068684;28;20192;-71
2021/07/14 02:59:25;;;;;;;1999.90;999.90;;;;;;;18.84;87.49;95591.25;5068880;28;20632;-63
2021/07/14 03:01:55;;;;;;;1999.90;999.90;;;;;;;18.93;86.38;95597.84;5068967;28;20265;-62
2021/07/14 03:04:28;;;;;;;1999.90;999.90;;;;;;;18.85;86.26;95593.56;5069057;28;20232;-62
2021/07/14 03:07:02;;;;;;;1999.90;999.90;;;;;;;18.85;86.25;95598.81;5068532;28;20189;-63
2021/07/14 03:09:37;;;;;;;1999.90;999.90;;;;;;;18.80;86.33;95601.72;5068527;28;20195;-63
2021/07/14 03:12:07;;;;;;;1999.90;999.90;;;;;;;18.77;86.76;95605.06;5068885;28;20220;-64
2021/07/14 03:14:36;;;;;;;1999.90;999.90;;;;;;;18.73;86.82;95601.53;5069001;28;20224;-67
2021/07/14 03:17:05;;;;;;;1999.90;999.90;;;;;;;18.60;87.49;95597.50;5087104;28;20206;-63
2021/07/14 03:19:35;;;;;;;1999.90;999.90;;;;;;;18.62;87.74;95595.31;5088714;28;20287;-64
2021/07/14 03:22:02;;;;;;;1999.90;999.90;;;;;;;18.62;88.38;95595.31;5088616;28;20200;-65
2021/07/14 03:24:30;;;;;;;1999.90;999.90;;;;;;;18.61;88.63;95599.03;5102446;28;20446;-67
2021/07/14 03:26:58;;;;;;;1999.90;999.90;;;;;;;18.80;87.37;95598.31;5108314;28;20827;-67
2021/07/14 03:29:26;;;;;;;1999.90;999.90;;;;;;;18.79;86.93;95597.56;5108368;28;20264;-71
2021/07/14 03:31:55;;;;;;;1999.90;999.90;;;;;;;18.76;86.95;95594.84;5108055;28;20191;-69
2021/07/14 03:34:22;;;;;;;1999.90;999.90;;;;;;;18.68;88.01;95604.44;5096045;28;20199;-68
2021/07/14 03:36:52;;;;;;;1999.90;999.90;;;;;;;18.61;88.45;95598.25;5068309;28;20208;-66
2021/07/14 03:39:20;;;;;;;1999.90;999.90;;;;;;;18.67;88.77;95592.41;5068332;28;20209;-68
2021/07/14 03:41:49;;;;;;;1999.90;999.90;;;;;;;18.69;88.33;95597.31;5091841;28;20201;-65
2021/07/14 03:44:19;;;;;;;1999.90;999.90;;;;;;;18.68;88.97;95603.69;5108824;28;20628;-66
2021/07/14 03:46:49;;;;;;;1999.90;999.90;;;;;;;18.71;88.44;95608.28;5108859;28;20199;-65
2021/07/14 03:49:17;;;;;;;1999.90;999.90;;;;;;;18.86;88.30;95605.63;5085957;28;20279;-64
2021/07/14 03:51:45;;;;;;;1999.90;999.90;;;;;;;18.88;88.91;95613.94;5081850;28;20200;-66
2021/07/14 03:54:15;;;;;;;1999.90;999.90;;;;;;;18.95;89.50;95615.19;5079721;28;20362;-68
2021/07/14 03:56:43;;;;;;;1999.90;999.90;;;;;;;19.05;89.57;95614.66;5086364;28;20663;-64
2021/07/14 03:59:11;;;;;;;1999.90;999.90;;;;;;;19.23;89.46;95624.47;5087634;28;20285;-64
2021/07/14 04:01:39;;;;;;;1999.90;999.90;;;;;;;19.21;90.11;95621.44;5091141;28;20200;-66
2021/07/14 04:04:07;;;;;;;1999.90;999.90;;;;;;;19.26;91.15;95625.66;5091647;28;20694;-66
2021/07/14 04:06:36;;;;;;;1999.90;999.90;;;;;;;19.34;91.56;95624.69;5082063;28;20252;-68
2021/07/14 04:09:22;;;;;;;1999.90;999.90;;;;;;;19.59;91.08;95628.63;5091279;28;20690;-66
2021/07/14 04:11:51;;;;;;;1999.90;999.90;;;;;;;19.80;91.13;95627.50;5090944;28;20192;-67
2021/07/14 04:14:19;;;;;;;1999.90;999.90;;;;;;;19.87;90.96;95625.00;5091886;28;20203;-66
2021/07/14 04:16:46;;;;;;;1999.90;999.90;;;;;;;20.02;89.81;95629.44;5090353;28;20914;-66
2021/07/14 04:19:14;;;;;;;1999.90;999.90;;;;;;;20.17;86.26;95616.13;5089994;28;20200;-65
2021/07/14 04:21:41;;;;;;;1999.90;999.90;;;;;;;20.29;85.43;95625.75;5089939;28;20273;-67
2021/07/14 04:24:08;;;;;;;1999.90;999.90;;;;;;;20.26;84.73;95630.97;5089873;28;20251;-67
2021/07/14 04:26:37;;;;;;;1999.90;999.90;;;;;;;20.28;84.08;95626.84;5090021;28;20254;-67
2021/07/14 04:29:06;;;;;;;1999.90;999.90;;;;;;;20.38;84.24;95622.91;5090208;28;20196;-67
2021/07/14 04:31:33;;;;;;;1999.90;999.90;;;;;;;20.51;83.00;95625.03;5091811;28;20203;-67
2021/07/14 04:34:01;;;;;;;1999.90;999.90;;;;;;;20.70;83.13;95626.06;5092059;28;20272;-67
2021/07/14 04:36:28;;;;;;;1999.90;999.90;;;;;;;21.00;81.94;95626.88;5091577;28;20200;-67
2021/07/14 04:38:57;;;;;;;1999.90;999.90;;;;;;;21.43;80.65;95634.28;5091396;28;20252;-67
2021/07/14 04:41:24;;;;;;;1999.90;999.90;;;;;;;21.80;77.92;95631.72;5091562;28;20195;-67
2021/07/14 04:43:53;;;;;;;1999.90;999.90;;;;;;;22.21;75.96;95632.53;5091665;28;20218;-67
2021/07/14 04:46:20;;;;;;;1999.90;999.90;;;;;;;22.41;75.99;95648.22;5091291;28;20633;-67
2021/07/14 04:48:47;;;;;;;1999.90;999.90;;;;;;;22.77;71.66;95646.66;5091269;28;20257;-67
2021/07/14 04:51:15;;;;;;;1999.90;999.90;;;;;;;23.13;70.32;95651.84;5091320;28;20195;-67
2021/07/14 04:53:42;;;;;;;1999.90;999.90;;;;;;;23.32;69.70;95653.44;5091235;28;20640;-67
2021/07/14 04:56:09;;;;;;;1999.90;999.90;;;;;;;23.49;69.85;95662.66;5091331;28;20203;-66
2021/07/14 04:58:37;;;;;;;1999.90;999.90;;;;;;;23.56;73.75;95666.09;5091674;28;20200;-69
2021/07/14 05:01:05;;;;;;;1999.90;999.90;;;;;;;23.66;73.78;95675.25;5091488;28;20287;-67
2021/07/14 05:03:33;;;;;;;1999.90;999.90;;;;;;;23.71;73.96;95668.84;5103962;28;20236;-67
2021/07/14 05:06:00;;;;;;;1999.90;999.90;;;;;;;23.75;73.25;95667.72;5111484;28;20315;-68
2021/07/14 05:08:27;;;;;;;1999.90;999.90;;;;;;;23.99;72.67;95672.38;5111636;28;20199;-66
2021/07/14 05:10:54;;;;;;;1999.90;999.90;;;;;;;24.11;72.05;95665.19;5111510;27;20582;-67
2021/07/14 05:13:22;;;;;;;1999.90;999.90;;;;;;;24.21;70.66;95667.16;5111593;28;20993;-76
2021/07/14 14:02:29;;;;;;;1999.90;999.90;;;;;;;37.59;24.33;95389.13;5428975;23;20229;-68
2021/07/14 14:04:58;;;;;;;1999.90;999.90;;;;;;;37.60;23.73;95394.06;4895295;29;20235;-75
2021/07/14 14:07:28;;;;;;;1999.90;999.90;;;;;;;37.31;24.05;95380.56;4910442;29;21084;-75
2021/07/14 14:09:57;;;;;;;1999.90;999.90;;;;;;;37.27;24.71;95383.44;4913924;29;20529;-80
2021/07/14 14:12:26;;;;;;;1999.90;999.90;;;;;;;37.55;24.39;95385.84;4914547;29;20206;-80
2021/07/14 14:14:55;;;;;;;1999.90;999.90;;;;;;;37.50;23.90;95381.81;4914839;29;20197;-80
2021/07/14 14:17:24;;;;;;;1999.90;999.90;;;;;;;37.28;25.01;95374.09;4915395;29;20202;-80
2021/07/14 14:19:54;;;;;;;1999.90;999.90;;;;;;;37.30;24.39;95370.94;4914225;29;20202;-81
2021/07/14 14:22:23;;;;;;;1999.90;999.90;;;;;;;37.23;25.24;95372.06;4915195;29;20249;-78
2021/07/14 14:24:50;;;;;;;1999.90;999.90;;;;;;;37.38;24.29;95361.91;4915202;29;20242;-82
2021/07/14 14:27:19;;;;;;;1999.90;999.90;;;;;;;37.43;25.73;95366.69;4913801;29;20225;-83
2021/07/14 14:29:46;;;;;;;1999.90;999.90;;;;;;;37.29;25.09;95369.44;4914261;29;20260;-76
2021/07/14 14:32:16;;;;;;;1999.90;999.90;;;;;;;37.17;25.54;95368.50;4913313;29;20209;-72
2021/07/14 14:34:44;;;;;;;1999.90;999.90;;;;;;;37.15;27.84;95379.09;4913629;29;20702;-78
2021/07/14 14:37:12;;;;;;;1999.90;999.90;;;;;;;37.11;28.32;95373.13;4913785;29;20749;-78
2021/07/14 14:39:39;;;;;;;1999.90;999.90;;;;;;;37.02;28.62;95375.88;4913824;29;20202;-71
2021/07/14 14:42:07;;;;;;;1999.90;999.90;;;;;;;36.84;29.10;95367.97;4913132;29;20269;-69
2021/07/14 14:44:34;;;;;;;1999.90;999.90;;;;;;;36.84;28.94;95379.56;4912767;29;20269;-70
2021/07/14 14:47:02;;;;;;;1999.90;999.90;;;;;;;36.91;29.44;95373.03;4912847;29;20332;-71
2021/07/14 14:49:29;;;;;;;1999.90;999.90;;;;;;;36.82;29.76;95378.50;4913247;29;20238;-78
2021/07/14 14:51:56;;;;;;;1999.90;999.90;;;;;;;36.64;29.39;95382.91;4913634;29;20210;-74
2021/07/14 14:54:24;;;;;;;1999.90;999.90;;;;;;;36.72;28.36;95369.72;4913364;29;20210;-79
2021/07/14 14:56:51;;;;;;;1999.90;999.90;;;;;;;36.61;29.38;95369.56;4913382;29;20245;-74
2021/07/14 14:59:20;;;;;;;1999.90;999.90;;;;;;;36.39;28.67;95372.59;4913105;29;20206;-79
2021/07/14 15:01:47;;;;;;;1999.90;999.90;;;;;;;36.43;29.61;95361.56;4912914;29;20241;-77
2021/07/14 15:04:15;;;;;;;1999.90;999.90;;;;;;;36.38;28.96;95357.56;4912980;29;20726;-79
2021/07/14 15:06:42;;;;;;;1999.90;999.90;;;;;;;36.28;29.17;95366.22;4912859;29;20226;-78
2021/07/14 15:09:09;;;;;;;1999.90;999.90;;;;;;;36.28;30.30;95358.84;4912939;29;20202;-79
2021/07/14 15:11:38;;;;;;;1999.90;999.90;;;;;;;36.34;30.24;95348.88;4913093;29;20221;-78
2021/07/14 15:14:05;;;;;;;1999.90;999.90;;;;;;;36.23;30.08;95354.06;4912975;29;20209;-79
2021/07/14 15:16:32;;;;;;;1999.90;999.90;;;;;;;36.14;30.36;95356.88;4913993;29;20257;-77
2021/07/14 15:19:00;;;;;;;1999.90;999.90;;;;;;;36.13;29.24;95345.28;4913223;29;20261;-75
2021/07/14 15:21:29;;;;;;;1999.90;999.90;;;;;;;35.84;30.34;95350.59;4913140;29;20689;-74
2021/07/14 15:23:57;;;;;;;1999.90;999.90;;;;;;;35.74;30.30;95362.69;4912924;29;20237;-72
2021/07/14 15:29:11;;;;;;;1999.90;999.90;;;;;;;35.61;31.56;95356.75;4912587;29;20185;-78
2021/07/14 15:31:38;;;;;;;1999.90;999.90;;;;;;;35.47;31.46;95358.16;4912564;29;20265;-77
2021/07/14 15:34:05;;;;;;;1999.90;999.90;;;;;;;35.53;32.00;95363.69;4911105;29;20234;-78
2021/07/14 15:36:32;;;;;;;1999.90;999.90;;;;;;;35.45;31.03;95357.88;4908359;29;20205;-78
2021/07/14 15:38:59;;;;;;;1999.90;999.90;;;;;;;35.50;31.20;95359.94;4912389;29;20213;-79
2021/07/14 15:41:27;;;;;;;1999.90;999.90;;;;;;;35.33;30.95;95359.56;4912756;29;20300;-77
2021/07/14 15:43:54;;;;;;;1999.90;999.90;;;;;;;35.35;31.77;95362.56;4912656;29;20312;-77
2021/07/14 15:46:23;;;;;;;1999.90;999.90;;;;;;;35.23;32.41;95362.78;4912453;29;20656;-76
2021/07/14 15:48:50;;;;;;;1999.90;999.90;;;;;;;35.24;32.38;95358.88;4912549;29;20217;-77
2021/07/14 15:51:17;;;;;;;1999.90;999.90;;;;;;;35.30;32.16;95363.19;4912576;29;20663;-78
2021/07/14 15:53:44;;;;;;;1999.90;999.90;;;;;;;35.29;31.66;95356.28;4911976;29;20204;-78
2021/07/14 15:56:12;;;;;;;1999.90;999.90;;;;;;;35.23;31.93;95362.78;4912699;29;20265;-80
2021/07/14 15:58:39;;;;;;;1999.90;999.90;;;;;;;35.08;32.70;95362.66;4916458;29;20257;-80
2021/07/14 16:01:07;;;;;;;1999.90;999.90;;;;;;;35.12;32.56;95365.94;4916315;29;20198;-79
2021/07/14 16:03:36;;;;;;;1999.90;999.90;;;;;;;34.97;32.38;95365.84;4917292;29;20210;-81
2021/07/14 16:06:04;;;;;;;1999.90;999.90;;;;;;;34.86;32.99;95372.94;4916712;29;20229;-81
2021/07/14 16:08:32;;;;;;;1999.90;999.90;;;;;;;35.06;32.91;95369.72;4917437;29;20633;-81
2021/07/14 16:11:01;;;;;;;1999.90;999.90;;;;;;;35.54;32.09;95365.94;4916353;29;20261;-70
2021/07/14 16:13:28;;;;;;;1999.90;999.90;;;;;;;35.56;31.97;95365.47;4915833;29;20241;-71
2021/07/14 16:15:55;;;;;;;1999.90;999.90;;;;;;;35.76;32.54;95371.84;4915618;29;20202;-78
2021/07/14 16:18:23;;;;;;;1999.90;999.90;;;;;;;35.88;32.23;95366.66;4916104;29;20208;-80
2021/07/14 16:20:51;;;;;;;1999.90;999.90;;;;;;;35.99;32.31;95361.47;4916149;29;20210;-75
2021/07/14 16:23:19;;;;;;;1999.90;999.90;;;;;;;36.03;32.15;95356.63;4915627;29;20202;-75
2021/07/14 16:25:46;;;;;;;1999.90;999.90;;;;;;;36.10;31.60;95356.28;4915629;29;20201;-80
2021/07/14 16:28:14;;;;;;;1999.90;999.90;;;;;;;35.95;31.61;95356.22;4914677;29;20622;-75
2021/07/14 16:30:41;;;;;;;1999.90;999.90;;;;;;;35.64;31.76;95358.50;4915769;29;20202;-74
2021/07/14 16:33:08;;;;;;;1999.90;999.90;;;;;;;35.29;31.95;95355.53;4914395;29;20293;-75
2021/07/14 16:35:36;;;;;;;1999.90;999.90;;;;;;;34.99;32.68;95360.75;4914139;29;20209;-74
2021/07/14 16:38:05;;;;;;;1999.90;999.90;;;;;;;34.84;33.25;95354.50;4914217;29;20213;-75
2021/07/14 16:40:32;;;;;;;1999.90;999.90;;;;;;;35.05;32.88;95352.78;4915221;29;20265;-71
2021/07/14 16:42:59;;;;;;;1999.90;999.90;;;;;;;34.68;33.13;95356.78;4915409;29;20202;-67
2021/07/14 16:45:26;;;;;;;1999.90;999.90;;;;;;;34.47;33.81;95355.75;4915362;29;20662;-67
2021/07/14 16:47:53;;;;;;;1999.90;999.90;;;;;;;34.30;34.25;95349.16;4905492;29;20741;-71
2021/07/14 16:50:20;;;;;;;1999.90;999.90;;;;;;;34.07;34.50;95359.31;4914783;29;20213;-71
2021/07/14 16:52:47;;;;;;;1999.90;999.90;;;;;;;33.91;35.05;95356.94;4915414;29;20202;-71
2021/07/14 16:55:17;;;;;;;1999.90;999.90;;;;;;;33.78;35.45;95359.00;4915329;29;20197;-71
2021/07/14 16:57:44;;;;;;;1999.90;999.90;;;;;;;33.48;36.19;95346.34;4915676;29;20256;-71
2021/07/14 17:00:14;;;;;;;1999.90;999.90;;;;;;;33.25;36.38;95348.38;4915622;29;20264;-71
2021/07/14 17:02:41;;;;;;;1999.90;999.90;;;;;;;33.16;36.58;95353.75;4914914;29;20233;-71
2021/07/14 17:05:09;;;;;;;1999.90;999.90;;;;;;;33.09;36.94;95355.91;4915257;29;20210;-71
2021/07/14 17:07:36;;;;;;;1999.90;999.90;;;;;;;32.87;37.12;95353.28;4914559;29;20265;-71
2021/07/14 17:10:05;;;;;;;1999.90;999.90;;;;;;;32.71;37.80;95350.81;4914894;29;20568;-71
2021/07/14 17:12:34;;;;;;;1999.90;999.90;;;;;;;32.43;38.44;95347.91;4914895;29;20217;-71
2021/07/14 17:15:01;;;;;;;1999.90;999.90;;;;;;;32.23;39.02;95347.47;4915161;29;20587;-71
2021/07/14 17:17:28;;;;;;;1999.90;999.90;;;;;;;32.19;38.57;95356.84;4914990;29;20206;-71
2021/07/14 17:19:55;;;;;;;1999.90;999.90;;;;;;;32.07;39.42;95349.56;4916697;29;20205;-71
2021/07/14 17:22:22;;;;;;;1999.90;999.90;;;;;;;31.93;39.37;95345.44;4916162;29;20816;-71
2021/07/14 17:24:50;;;;;;;1999.90;999.90;;;;;;;31.77;39.41;95345.56;4915039;29;20273;-71
2021/07/14 17:27:19;;;;;;;1999.90;999.90;;;;;;;31.61;39.83;95347.22;4914596;29;20229;-71
2021/07/14 17:29:48;;;;;;;1999.90;999.90;;;;;;;31.40;40.40;95355.16;4914828;29;20277;-71
2021/07/14 17:32:16;;;;;;;1999.90;999.90;;;;;;;31.28;40.91;95348.66;4914434;29;20206;-71
2021/07/14 17:34:43;;;;;;;1999.90;999.90;;;;;;;31.24;40.76;95358.72;4914005;29;20202;-71
2021/07/14 17:37:10;;;;;;;1999.90;999.90;;;;;;;31.04;40.92;95358.19;4914699;29;20198;-70
2021/07/14 17:39:38;;;;;;;1999.90;999.90;;;;;;;30.84;42.09;95354.91;4915095;29;20213;-71
2021/07/14 17:42:06;;;;;;;1999.90;999.90;;;;;;;30.74;41.74;95360.16;4914418;29;20257;-72
2021/07/14 17:44:33;;;;;;;1999.90;999.90;;;;;;;30.64;42.39;95365.84;4914393;29;20277;-70
2021/07/14 17:47:02;;;;;;;1999.90;999.90;;;;;;;30.60;41.82;95365.19;4914130;29;20222;-71
2021/07/14 17:49:29;;;;;;;1999.90;999.90;;;;;;;30.42;43.00;95360.28;4914763;29;20206;-71
2021/07/14 17:51:56;;;;;;;1999.90;999.90;;;;;;;30.39;42.82;95360.41;4914572;29;20310;-71
2021/07/14 17:54:23;;;;;;;1999.90;999.90;;;;;;;30.13;43.63;95364.91;4914314;29;20273;-71
2021/07/14 17:56:50;;;;;;;1999.90;999.90;;;;;;;30.17;43.42;95369.00;4913947;29;20205;-71
2021/07/14 17:59:17;;;;;;;1999.90;999.90;;;;;;;30.22;42.86;95373.84;4914193;29;20206;-71
2021/07/14 18:01:45;;;;;;;1999.90;999.90;;;;;;;30.11;43.55;95372.63;4914062;29;20399;-71
2021/07/14 18:04:13;;;;;;;1999.90;999.90;;;;;;;30.08;43.56;95368.88;4913823;29;20202;-71
2021/07/14 18:06:40;;;;;;;1999.90;999.90;;;;;;;29.93;43.92;95375.75;4914005;29;20285;-70
2021/07/14 18:09:08;;;;;;;1999.90;999.90;;;;;;;29.74;44.64;95376.59;4914004;29;20281;-71
2021/07/14 18:11:35;;;;;;;1999.90;999.90;;;;;;;29.66;44.29;95378.69;4914210;29;20261;-71
2021/07/14 18:14:02;;;;;;;1999.90;999.90;;;;;;;29.63;44.47;95381.44;4913770;29;20201;-70
2021/07/14 18:16:29;;;;;;;1999.90;999.90;;;;;;;29.56;45.16;95387.72;4913855;29;20740;-70
2021/07/14 18:18:57;;;;;;;1999.90;999.90;;;;;;;29.56;45.25;95386.97;4912953;29;20213;-71
2021/07/14 18:21:26;;;;;;;1999.90;999.90;;;;;;;29.42;45.73;95396.09;4913510;29;20679;-71
2021/07/14 18:23:53;;;;;;;1999.90;999.90;;;;;;;29.28;45.86;95396.38;4913718;29;20304;-70
2021/07/14 18:26:21;;;;;;;1999.90;999.90;;;;;;;29.33;45.95;95398.59;4913551;29;20205;-70
2021/07/14 18:28:50;;;;;;;1999.90;999.90;;;;;;;29.32;46.36;95397.06;4913618;29;20276;-70
2021/07/14 18:31:20;;;;;;;1999.90;999.90;;;;;;;29.19;46.15;95398.88;4913750;29;20261;-71
2021/07/14 18:33:48;;;;;;;1999.90;999.90;;;;;;;29.08;46.79;95413.25;4914201;29;20198;-71
2021/07/14 18:36:16;;;;;;;1999.90;999.90;;;;;;;29.00;47.10;95411.88;4913614;29;20205;-71
2021/07/14 18:38:45;;;;;;;1999.90;999.90;;;;;;;28.94;48.08;95420.81;4913185;29;20201;-71
2021/07/14 18:41:16;;;;;;;1999.90;999.90;;;;;;;28.92;48.26;95420.47;4913173;29;20206;-72
2021/07/14 18:43:44;;;;;;;1999.90;999.90;;;;;;;28.82;48.47;95422.19;4913268;29;20197;-71
2021/07/14 18:46:11;;;;;;;1999.90;999.90;;;;;;;28.76;48.01;95423.84;4913364;29;20276;-71
2021/07/14 18:48:38;;;;;;;1999.90;999.90;;;;;;;28.68;49.07;95417.84;4912435;29;20265;-71
2021/07/14 18:51:05;;;;;;;1999.90;999.90;;;;;;;28.66;49.27;95422.09;4894415;29;20210;-72
2021/07/14 18:53:33;;;;;;;1999.90;999.90;;;;;;;28.61;49.31;95427.91;4895402;29;20270;-75
2021/07/14 18:56:02;;;;;;;1999.90;999.90;;;;;;;28.56;49.42;95433.75;4906714;29;20209;-71
2021/07/14 18:58:29;;;;;;;1999.90;999.90;;;;;;;28.53;49.74;95439.94;4913479;29;20210;-68
2021/07/14 19:00:56;;;;;;;1999.90;999.90;;;;;;;28.46;50.09;95437.38;4913222;29;20675;-70
2021/07/14 19:03:24;;;;;;;1999.90;999.90;;;;;;;28.44;49.53;95440.47;4912615;29;20237;-70
2021/07/14 19:05:51;;;;;;;1999.90;999.90;;;;;;;28.43;49.88;95440.88;4913077;29;20737;-70
2021/07/14 19:08:20;;;;;;;1999.90;999.90;;;;;;;28.45;50.25;95446.56;4912962;29;20308;-71
2021/07/14 19:10:48;;;;;;;1999.90;999.90;;;;;;;28.32;49.93;95448.31;4912801;29;20210;-71
2021/07/14 19:13:18;;;;;;;1999.90;999.90;;;;;;;28.27;49.90;95454.91;4912924;29;20204;-74
2021/07/14 19:15:45;;;;;;;1999.90;999.90;;;;;;;28.22;50.21;95452.69;4912562;29;20670;-71
2021/07/14 19:18:12;;;;;;;1999.90;999.90;;;;;;;28.17;50.78;95456.59;4912633;29;20209;-71
2021/07/14 19:20:40;;;;;;;1999.90;999.90;;;;;;;28.05;50.93;95454.47;4912159;29;20210;-71
2021/07/14 19:23:07;;;;;;;1999.90;999.90;;;;;;;27.97;51.54;95466.44;4910369;29;20206;-72
2021/07/14 19:25:37;;;;;;;1999.90;999.90;;;;;;;27.90;51.30;95463.09;4910395;29;20217;-75
2021/07/14 19:28:05;;;;;;;1999.90;999.90;;;;;;;27.88;51.48;95460.84;4911137;29;20262;-71
2021/07/14 19:30:37;;;;;;;1999.90;999.90;;;;;;;27.85;51.17;95464.31;4910816;29;20220;-73
2021/07/14 19:33:04;;;;;;;1999.90;999.90;;;;;;;27.81;51.07;95460.94;4916316;29;20205;-72
2021/07/14 19:35:31;;;;;;;1999.90;999.90;;;;;;;27.78;51.71;95465.19;4915921;29;20206;-73
2021/07/14 19:37:59;;;;;;;1999.90;999.90;;;;;;;27.69;51.45;95464.22;4916090;29;20202;-73
2021/07/14 19:40:26;;;;;;;1999.90;999.90;;;;;;;27.65;51.22;95468.81;4915987;29;20205;-73
2021/07/14 19:42:53;;;;;;;1999.90;999.90;;;;;;;27.50;52.35;95464.88;4916415;29;20216;-73
2021/07/14 19:45:24;;;;;;;1999.90;999.90;;;;;;;27.48;51.75;95467.16;4916563;29;20209;-70
2021/07/14 19:47:53;;;;;;;1999.90;999.90;;;;;;;27.44;51.47;95461.88;4916001;29;20437;-71
2021/07/14 19:50:20;;;;;;;1999.90;999.90;;;;;;;27.35;52.01;95458.91;4916423;29;20288;-72
2021/07/14 19:52:47;;;;;;;1999.90;999.90;;;;;;;27.34;51.99;95463.53;4915965;29;20623;-73
2021/07/14 19:55:15;;;;;;;1999.90;999.90;;;;;;;27.25;52.40;95457.91;4916580;29;20540;-75
2021/07/14 19:57:42;;;;;;;1999.90;999.90;;;;;;;27.15;52.83;95460.72;4917344;29;20269;-75